sensor_id;sensor_type;location;lat;lon;timestamp;P1;durP1;ratioP1;P2;durP2;ratioP2
17372;SDS011;8803;48.116;11.590;2022-09-09T00:02:32;1.33;;;1.10;;
17372;SDS011;8803;48.116;11.590;2022-09-09T00:04:37;1.43;;;1.10;;
17372;SDS011;8803;48.116;11.590;2022-09-09T00:06:43;1.53;;;1.10;;
17372;SDS011;8803;48.116;11.590;2022-09-09T00:08:53;1.67;;;1.33;;
17372;SDS011;8803;48.116;11.590;2022-09-09T00:11:08;1.50;;;1.20;;
17372;SDS011;8803;48.116;11.590;2022-09-09T00:13:16;1.50;;;1.30;;
17372;SDS011;8803;48.116;11.590;2022-09-09T00:15:31;2.03;;;1.00;;
17372;SDS011;8803;48.116;11.590;2022-09-09T00:17:38;2.20;;;1.10;;
17372;SDS011;8803;48.116;11.590;2022-09-09T00:19:44;1.90;;;1.23;;
17372;SDS011;8803;48.116;11.590;2022-09-09T00:22:02;1.90;;;1.20;;
17372;SDS011;8803;48.116;11.590;2022-09-09T00:24:10;1.10;;;1.00;;
17372;SDS011;8803;48.116;11.590;2022-09-09T00:26:18;1.30;;;1.17;;
17372;SDS011;8803;48.116;11.590;2022-09-09T00:28:36;3.80;;;1.30;;
17372;SDS011;8803;48.116;11.590;2022-09-09T00:30:40;1.87;;;1.30;;
17372;SDS011;8803;48.116;11.590;2022-09-09T00:32:58;1.90;;;1.43;;
17372;SDS011;8803;48.116;11.590;2022-09-09T00:35:03;1.90;;;1.27;;
17372;SDS011;8803;48.116;11.590;2022-09-09T00:37:17;1.30;;;1.20;;
17372;SDS011;8803;48.116;11.590;2022-09-09T00:41:44;1.50;;;1.33;;
17372;SDS011;8803;48.116;11.590;2022-09-09T00:43:55;1.40;;;1.30;;
17372;SDS011;8803;48.116;11.590;2022-09-09T00:46:18;1.40;;;1.30;;
17372;SDS011;8803;48.116;11.590;2022-09-09T00:48:42;1.30;;;1.20;;
17372;SDS011;8803;48.116;11.590;2022-09-09T00:50:52;1.30;;;1.20;;
17372;SDS011;8803;48.116;11.590;2022-09-09T00:53:09;1.57;;;1.47;;
17372;SDS011;8803;48.116;11.590;2022-09-09T00:55:16;1.50;;;1.33;;
17372;SDS011;8803;48.116;11.590;2022-09-09T00:57:25;1.30;;;1.20;;
17372;SDS011;8803;48.116;11.590;2022-09-09T01:01:41;1.53;;;1.13;;
17372;SDS011;8803;48.116;11.590;2022-09-09T01:03:46;1.87;;;1.13;;
17372;SDS011;8803;48.116;11.590;2022-09-09T01:08:09;1.20;;;0.90;;
17372;SDS011;8803;48.116;11.590;2022-09-09T01:10:15;1.60;;;1.40;;
17372;SDS011;8803;48.116;11.590;2022-09-09T01:12:33;1.13;;;1.03;;
17372;SDS011;8803;48.116;11.590;2022-09-09T01:14:41;1.80;;;1.37;;
17372;SDS011;8803;48.116;11.590;2022-09-09T01:16:47;3.30;;;1.60;;
17372;SDS011;8803;48.116;11.590;2022-09-09T01:18:53;1.43;;;1.20;;
17372;SDS011;8803;48.116;11.590;2022-09-09T01:21:08;1.17;;;1.00;;
17372;SDS011;8803;48.116;11.590;2022-09-09T01:28:08;1.37;;;1.27;;
17372;SDS011;8803;48.116;11.590;2022-09-09T01:30:15;1.60;;;1.10;;
17372;SDS011;8803;48.116;11.590;2022-09-09T01:32:39;1.20;;;1.10;;
17372;SDS011;8803;48.116;11.590;2022-09-09T01:34:45;1.57;;;1.10;;
17372;SDS011;8803;48.116;11.590;2022-09-09T01:36:49;1.20;;;1.10;;
17372;SDS011;8803;48.116;11.590;2022-09-09T01:38:56;1.87;;;1.10;;
17372;SDS011;8803;48.116;11.590;2022-09-09T01:41:00;1.20;;;1.10;;
17372;SDS011;8803;48.116;11.590;2022-09-09T01:43:13;1.50;;;0.90;;
17372;SDS011;8803;48.116;11.590;2022-09-09T01:45:17;1.67;;;1.17;;
17372;SDS011;8803;48.116;11.590;2022-09-09T01:47:21;2.37;;;1.20;;
17372;SDS011;8803;48.116;11.590;2022-09-09T01:49:25;4.83;;;1.27;;
17372;SDS011;8803;48.116;11.590;2022-09-09T01:51:29;2.00;;;1.20;;
17372;SDS011;8803;48.116;11.590;2022-09-09T01:55:49;1.20;;;1.10;;
17372;SDS011;8803;48.116;11.590;2022-09-09T01:57:59;1.10;;;1.00;;
17372;SDS011;8803;48.116;11.590;2022-09-09T02:00:13;1.37;;;1.27;;
17372;SDS011;8803;48.116;11.590;2022-09-09T02:02:18;2.63;;;1.07;;
17372;SDS011;8803;48.116;11.590;2022-09-09T02:04:35;3.17;;;1.10;;
17372;SDS011;8803;48.116;11.590;2022-09-09T02:06:41;2.43;;;1.20;;
17372;SDS011;8803;48.116;11.590;2022-09-09T02:08:47;1.97;;;1.00;;
17372;SDS011;8803;48.116;11.590;2022-09-09T02:13:07;1.57;;;1.13;;
17372;SDS011;8803;48.116;11.590;2022-09-09T02:15:14;1.43;;;1.10;;
17372;SDS011;8803;48.116;11.590;2022-09-09T02:17:28;1.37;;;1.10;;
17372;SDS011;8803;48.116;11.590;2022-09-09T02:19:38;2.47;;;1.17;;
17372;SDS011;8803;48.116;11.590;2022-09-09T02:21:51;1.37;;;1.10;;
17372;SDS011;8803;48.116;11.590;2022-09-09T02:23:58;1.27;;;1.07;;
17372;SDS011;8803;48.116;11.590;2022-09-09T02:26:05;3.67;;;1.13;;
17372;SDS011;8803;48.116;11.590;2022-09-09T02:28:11;1.30;;;1.20;;
17372;SDS011;8803;48.116;11.590;2022-09-09T02:30:17;1.40;;;1.30;;
17372;SDS011;8803;48.116;11.590;2022-09-09T02:32:32;1.13;;;1.00;;
17372;SDS011;8803;48.116;11.590;2022-09-09T02:34:39;1.20;;;1.10;;
17372;SDS011;8803;48.116;11.590;2022-09-09T02:36:45;1.60;;;1.10;;
17372;SDS011;8803;48.116;11.590;2022-09-09T02:39:02;1.20;;;1.00;;
17372;SDS011;8803;48.116;11.590;2022-09-09T02:41:09;3.30;;;1.47;;
17372;SDS011;8803;48.116;11.590;2022-09-09T02:43:14;2.67;;;1.33;;
17372;SDS011;8803;48.116;11.590;2022-09-09T02:45:31;5.47;;;1.20;;
17372;SDS011;8803;48.116;11.590;2022-09-09T02:47:37;3.13;;;1.27;;
17372;SDS011;8803;48.116;11.590;2022-09-09T02:49:48;1.20;;;1.10;;
17372;SDS011;8803;48.116;11.590;2022-09-09T02:52:05;1.20;;;1.10;;
17372;SDS011;8803;48.116;11.590;2022-09-09T02:54:10;1.37;;;1.07;;
17372;SDS011;8803;48.116;11.590;2022-09-09T02:56:27;2.90;;;1.40;;
17372;SDS011;8803;48.116;11.590;2022-09-09T02:58:34;1.40;;;1.00;;
17372;SDS011;8803;48.116;11.590;2022-09-09T03:02:51;1.40;;;1.30;;
17372;SDS011;8803;48.116;11.590;2022-09-09T03:04:57;2.40;;;1.30;;
17372;SDS011;8803;48.116;11.590;2022-09-09T03:07:02;2.50;;;1.40;;
17372;SDS011;8803;48.116;11.590;2022-09-09T03:09:08;1.87;;;1.10;;
17372;SDS011;8803;48.116;11.590;2022-09-09T03:11:14;2.13;;;1.40;;
17372;SDS011;8803;48.116;11.590;2022-09-09T03:13:19;2.10;;;1.20;;
17372;SDS011;8803;48.116;11.590;2022-09-09T03:15:33;1.23;;;1.13;;
17372;SDS011;8803;48.116;11.590;2022-09-09T03:17:39;1.90;;;1.20;;
17372;SDS011;8803;48.116;11.590;2022-09-09T03:19:45;1.27;;;1.13;;
17372;SDS011;8803;48.116;11.590;2022-09-09T03:21:58;1.57;;;1.20;;
17372;SDS011;8803;48.116;11.590;2022-09-09T03:24:06;1.10;;;1.00;;
17372;SDS011;8803;48.116;11.590;2022-09-09T03:26:11;1.87;;;1.40;;
17372;SDS011;8803;48.116;11.590;2022-09-09T03:28:17;2.87;;;1.33;;
17372;SDS011;8803;48.116;11.590;2022-09-09T03:30:30;1.93;;;1.07;;
17372;SDS011;8803;48.116;11.590;2022-09-09T03:32:36;2.50;;;1.47;;
17372;SDS011;8803;48.116;11.590;2022-09-09T03:34:50;1.60;;;1.13;;
17372;SDS011;8803;48.116;11.590;2022-09-09T03:36:55;1.30;;;1.20;;
17372;SDS011;8803;48.116;11.590;2022-09-09T03:39:00;2.53;;;1.43;;
17372;SDS011;8803;48.116;11.590;2022-09-09T03:41:13;2.13;;;1.30;;
17372;SDS011;8803;48.116;11.590;2022-09-09T03:43:19;1.47;;;1.33;;
17372;SDS011;8803;48.116;11.590;2022-09-09T03:45:25;1.10;;;0.93;;
17372;SDS011;8803;48.116;11.590;2022-09-09T03:47:39;1.30;;;1.20;;
17372;SDS011;8803;48.116;11.590;2022-09-09T03:49:45;2.17;;;0.90;;
17372;SDS011;8803;48.116;11.590;2022-09-09T03:51:58;2.20;;;1.20;;
17372;SDS011;8803;48.116;11.590;2022-09-09T03:54:05;1.53;;;1.37;;
17372;SDS011;8803;48.116;11.590;2022-09-09T03:56:11;1.90;;;1.10;;
17372;SDS011;8803;48.116;11.590;2022-09-09T03:58:17;1.87;;;1.07;;
17372;SDS011;8803;48.116;11.590;2022-09-09T04:00:22;1.20;;;1.10;;
17372;SDS011;8803;48.116;11.590;2022-09-09T04:02:36;1.53;;;1.17;;
17372;SDS011;8803;48.116;11.590;2022-09-09T04:04:41;1.27;;;1.10;;
17372;SDS011;8803;48.116;11.590;2022-09-09T04:06:46;2.23;;;1.10;;
17372;SDS011;8803;48.116;11.590;2022-09-09T04:08:52;1.30;;;1.10;;
17372;SDS011;8803;48.116;11.590;2022-09-09T04:11:08;1.10;;;1.00;;
17372;SDS011;8803;48.116;11.590;2022-09-09T04:15:25;1.23;;;1.00;;
17372;SDS011;8803;48.116;11.590;2022-09-09T04:17:32;1.67;;;1.40;;
17372;SDS011;8803;48.116;11.590;2022-09-09T04:19:48;1.77;;;1.40;;
17372;SDS011;8803;48.116;11.590;2022-09-09T04:21:52;1.40;;;1.30;;
17372;SDS011;8803;48.116;11.590;2022-09-09T04:23:56;3.17;;;1.33;;
17372;SDS011;8803;48.116;11.590;2022-09-09T04:26:09;1.53;;;1.23;;
17372;SDS011;8803;48.116;11.590;2022-09-09T04:28:12;3.13;;;1.30;;
17372;SDS011;8803;48.116;11.590;2022-09-09T04:30:17;1.83;;;1.10;;
17372;SDS011;8803;48.116;11.590;2022-09-09T04:32:29;1.73;;;1.43;;
17372;SDS011;8803;48.116;11.590;2022-09-09T04:34:34;2.70;;;1.27;;
17372;SDS011;8803;48.116;11.590;2022-09-09T04:36:38;3.20;;;1.20;;
17372;SDS011;8803;48.116;11.590;2022-09-09T04:38:42;1.40;;;1.30;;
17372;SDS011;8803;48.116;11.590;2022-09-09T04:40:46;1.50;;;1.00;;
17372;SDS011;8803;48.116;11.590;2022-09-09T04:42:59;1.83;;;1.03;;
17372;SDS011;8803;48.116;11.590;2022-09-09T04:45:06;1.47;;;1.00;;
17372;SDS011;8803;48.116;11.590;2022-09-09T04:47:19;2.40;;;1.60;;
17372;SDS011;8803;48.116;11.590;2022-09-09T04:49:23;4.93;;;1.47;;
17372;SDS011;8803;48.116;11.590;2022-09-09T04:51:27;1.90;;;1.23;;
17372;SDS011;8803;48.116;11.590;2022-09-09T04:53:40;3.47;;;1.20;;
17372;SDS011;8803;48.116;11.590;2022-09-09T04:55:44;1.30;;;1.20;;
17372;SDS011;8803;48.116;11.590;2022-09-09T04:57:47;1.23;;;1.10;;
17372;SDS011;8803;48.116;11.590;2022-09-09T04:59:51;1.73;;;1.00;;
17372;SDS011;8803;48.116;11.590;2022-09-09T05:01:55;1.60;;;1.37;;
17372;SDS011;8803;48.116;11.590;2022-09-09T05:03:59;2.77;;;1.23;;
17372;SDS011;8803;48.116;11.590;2022-09-09T05:06:05;3.03;;;1.33;;
17372;SDS011;8803;48.116;11.590;2022-09-09T05:08:10;1.93;;;1.40;;
17372;SDS011;8803;48.116;11.590;2022-09-09T05:10:14;1.30;;;1.20;;
17372;SDS011;8803;48.116;11.590;2022-09-09T05:12:27;2.37;;;1.70;;
17372;SDS011;8803;48.116;11.590;2022-09-09T05:14:31;2.20;;;1.50;;
17372;SDS011;8803;48.116;11.590;2022-09-09T05:16:44;1.53;;;1.30;;
17372;SDS011;8803;48.116;11.590;2022-09-09T05:18:50;1.63;;;1.30;;
17372;SDS011;8803;48.116;11.590;2022-09-09T05:20:58;1.40;;;1.30;;
17372;SDS011;8803;48.116;11.590;2022-09-09T05:23:12;2.10;;;1.40;;
17372;SDS011;8803;48.116;11.590;2022-09-09T05:25:17;1.47;;;1.17;;
17372;SDS011;8803;48.116;11.590;2022-09-09T05:27:21;1.60;;;1.10;;
17372;SDS011;8803;48.116;11.590;2022-09-09T05:29:33;2.90;;;1.40;;
17372;SDS011;8803;48.116;11.590;2022-09-09T05:31:37;1.50;;;1.17;;
17372;SDS011;8803;48.116;11.590;2022-09-09T05:33:49;1.40;;;1.30;;
17372;SDS011;8803;48.116;11.590;2022-09-09T05:36:00;3.00;;;1.63;;
17372;SDS011;8803;48.116;11.590;2022-09-09T05:38:05;2.20;;;1.70;;
17372;SDS011;8803;48.116;11.590;2022-09-09T05:40:18;1.60;;;1.50;;
17372;SDS011;8803;48.116;11.590;2022-09-09T05:42:23;1.57;;;1.10;;
17372;SDS011;8803;48.116;11.590;2022-09-09T05:44:36;2.63;;;1.20;;
17372;SDS011;8803;48.116;11.590;2022-09-09T05:46:39;1.77;;;1.27;;
17372;SDS011;8803;48.116;11.590;2022-09-09T05:48:44;2.17;;;1.30;;
17372;SDS011;8803;48.116;11.590;2022-09-09T05:50:52;1.40;;;1.20;;
17372;SDS011;8803;48.116;11.590;2022-09-09T05:53:08;2.83;;;1.60;;
17372;SDS011;8803;48.116;11.590;2022-09-09T05:55:12;2.23;;;1.60;;
17372;SDS011;8803;48.116;11.590;2022-09-09T05:57:27;2.63;;;1.90;;
17372;SDS011;8803;48.116;11.590;2022-09-09T05:59:31;3.63;;;1.80;;
17372;SDS011;8803;48.116;11.590;2022-09-09T06:01:36;3.93;;;3.00;;
17372;SDS011;8803;48.116;11.590;2022-09-09T06:03:49;2.90;;;2.37;;
17372;SDS011;8803;48.116;11.590;2022-09-09T06:05:57;3.30;;;3.00;;
17372;SDS011;8803;48.116;11.590;2022-09-09T06:08:01;4.53;;;3.73;;
17372;SDS011;8803;48.116;11.590;2022-09-09T06:10:06;5.77;;;4.93;;
17372;SDS011;8803;48.116;11.590;2022-09-09T06:12:19;9.37;;;7.53;;
17372;SDS011;8803;48.116;11.590;2022-09-09T06:14:23;5.53;;;4.67;;
17372;SDS011;8803;48.116;11.590;2022-09-09T06:16:28;3.23;;;2.60;;
17372;SDS011;8803;48.116;11.590;2022-09-09T06:18:34;3.50;;;1.77;;
17372;SDS011;8803;48.116;11.590;2022-09-09T06:22:49;2.43;;;1.40;;
17372;SDS011;8803;48.116;11.590;2022-09-09T06:24:53;2.00;;;1.30;;
17372;SDS011;8803;48.116;11.590;2022-09-09T06:27:05;3.70;;;1.70;;
17372;SDS011;8803;48.116;11.590;2022-09-09T06:29:09;1.60;;;1.50;;
17372;SDS011;8803;48.116;11.590;2022-09-09T06:31:14;2.13;;;1.50;;
17372;SDS011;8803;48.116;11.590;2022-09-09T06:33:31;1.97;;;1.20;;
17372;SDS011;8803;48.116;11.590;2022-09-09T06:35:35;1.27;;;1.17;;
17372;SDS011;8803;48.116;11.590;2022-09-09T06:37:39;2.90;;;1.50;;
17372;SDS011;8803;48.116;11.590;2022-09-09T06:39:44;2.63;;;1.70;;
17372;SDS011;8803;48.116;11.590;2022-09-09T06:41:49;2.30;;;1.40;;
17372;SDS011;8803;48.116;11.590;2022-09-09T06:43:54;1.20;;;0.90;;
17372;SDS011;8803;48.116;11.590;2022-09-09T06:45:59;2.00;;;1.20;;
17372;SDS011;8803;48.116;11.590;2022-09-09T06:48:11;1.63;;;0.90;;
17372;SDS011;8803;48.116;11.590;2022-09-09T06:52:30;1.30;;;1.00;;
17372;SDS011;8803;48.116;11.590;2022-09-09T06:54:34;3.07;;;1.27;;
17372;SDS011;8803;48.116;11.590;2022-09-09T06:56:39;1.07;;;0.90;;
17372;SDS011;8803;48.116;11.590;2022-09-09T06:58:52;1.20;;;0.90;;
17372;SDS011;8803;48.116;11.590;2022-09-09T07:01:02;1.00;;;0.90;;
17372;SDS011;8803;48.116;11.590;2022-09-09T07:03:15;1.17;;;1.07;;
17372;SDS011;8803;48.116;11.590;2022-09-09T07:05:19;1.10;;;1.00;;
17372;SDS011;8803;48.116;11.590;2022-09-09T07:07:22;2.63;;;1.40;;
17372;SDS011;8803;48.116;11.590;2022-09-09T07:09:38;1.80;;;1.00;;
17372;SDS011;8803;48.116;11.590;2022-09-09T07:11:43;1.30;;;1.20;;
17372;SDS011;8803;48.116;11.590;2022-09-09T07:13:57;2.27;;;1.00;;
17372;SDS011;8803;48.116;11.590;2022-09-09T07:16:04;1.43;;;0.97;;
17372;SDS011;8803;48.116;11.590;2022-09-09T07:18:16;1.23;;;1.07;;
17372;SDS011;8803;48.116;11.590;2022-09-09T07:20:20;2.50;;;1.20;;
17372;SDS011;8803;48.116;11.590;2022-09-09T07:22:34;2.27;;;1.30;;
17372;SDS011;8803;48.116;11.590;2022-09-09T07:24:38;2.93;;;1.10;;
17372;SDS011;8803;48.116;11.590;2022-09-09T07:26:41;1.43;;;1.20;;
17372;SDS011;8803;48.116;11.590;2022-09-09T07:28:46;1.10;;;1.00;;
17372;SDS011;8803;48.116;11.590;2022-09-09T07:30:54;1.90;;;1.10;;
17372;SDS011;8803;48.116;11.590;2022-09-09T07:32:59;1.43;;;1.00;;
17372;SDS011;8803;48.116;11.590;2022-09-09T07:35:11;0.80;;;0.80;;
17372;SDS011;8803;48.116;11.590;2022-09-09T07:37:15;1.77;;;1.10;;
17372;SDS011;8803;48.116;11.590;2022-09-09T07:39:19;1.20;;;0.90;;
17372;SDS011;8803;48.116;11.590;2022-09-09T07:41:24;1.77;;;1.00;;
17372;SDS011;8803;48.116;11.590;2022-09-09T07:43:38;2.90;;;0.93;;
17372;SDS011;8803;48.116;11.590;2022-09-09T07:45:41;1.13;;;1.00;;
17372;SDS011;8803;48.116;11.590;2022-09-09T07:47:45;1.40;;;1.30;;
17372;SDS011;8803;48.116;11.590;2022-09-09T07:49:49;2.13;;;1.10;;
17372;SDS011;8803;48.116;11.590;2022-09-09T07:52:02;1.77;;;1.10;;
17372;SDS011;8803;48.116;11.590;2022-09-09T07:54:07;4.00;;;1.10;;
17372;SDS011;8803;48.116;11.590;2022-09-09T07:56:14;2.00;;;1.27;;
17372;SDS011;8803;48.116;11.590;2022-09-09T07:58:26;1.37;;;1.00;;
17372;SDS011;8803;48.116;11.590;2022-09-09T08:02:41;1.20;;;1.00;;
17372;SDS011;8803;48.116;11.590;2022-09-09T08:04:45;1.50;;;1.13;;
17372;SDS011;8803;48.116;11.590;2022-09-09T08:06:50;1.33;;;1.10;;
17372;SDS011;8803;48.116;11.590;2022-09-09T08:08:55;1.03;;;0.93;;
17372;SDS011;8803;48.116;11.590;2022-09-09T08:11:09;0.87;;;0.80;;
17372;SDS011;8803;48.116;11.590;2022-09-09T08:13:15;1.13;;;1.03;;
17372;SDS011;8803;48.116;11.590;2022-09-09T08:15:28;1.30;;;1.20;;
17372;SDS011;8803;48.116;11.590;2022-09-09T08:17:32;2.53;;;1.40;;
17372;SDS011;8803;48.116;11.590;2022-09-09T08:19:35;1.33;;;1.00;;
17372;SDS011;8803;48.116;11.590;2022-09-09T08:21:39;2.13;;;1.37;;
17372;SDS011;8803;48.116;11.590;2022-09-09T08:23:52;1.43;;;1.13;;
17372;SDS011;8803;48.116;11.590;2022-09-09T08:26:03;1.30;;;1.17;;
17372;SDS011;8803;48.116;11.590;2022-09-09T08:28:08;2.20;;;1.40;;
17372;SDS011;8803;48.116;11.590;2022-09-09T08:30:12;1.97;;;1.23;;
17372;SDS011;8803;48.116;11.590;2022-09-09T08:32:25;1.77;;;1.13;;
17372;SDS011;8803;48.116;11.590;2022-09-09T08:34:28;3.53;;;2.87;;
17372;SDS011;8803;48.116;11.590;2022-09-09T08:36:42;3.00;;;2.67;;
17372;SDS011;8803;48.116;11.590;2022-09-09T08:38:47;2.57;;;2.27;;
17372;SDS011;8803;48.116;11.590;2022-09-09T08:40:52;1.53;;;1.30;;
17372;SDS011;8803;48.116;11.590;2022-09-09T08:43:05;1.40;;;1.30;;
17372;SDS011;8803;48.116;11.590;2022-09-09T08:45:14;2.27;;;1.20;;
17372;SDS011;8803;48.116;11.590;2022-09-09T08:47:22;1.30;;;1.13;;
17372;SDS011;8803;48.116;11.590;2022-09-09T08:49:40;1.83;;;1.20;;
17372;SDS011;8803;48.116;11.590;2022-09-09T08:51:56;1.30;;;1.20;;
17372;SDS011;8803;48.116;11.590;2022-09-09T08:54:02;1.53;;;1.30;;
17372;SDS011;8803;48.116;11.590;2022-09-09T08:56:09;1.47;;;1.20;;
17372;SDS011;8803;48.116;11.590;2022-09-09T08:58:17;2.17;;;1.33;;
17372;SDS011;8803;48.116;11.590;2022-09-09T09:00:23;1.60;;;1.23;;
17372;SDS011;8803;48.116;11.590;2022-09-09T09:02:39;1.13;;;1.03;;
17372;SDS011;8803;48.116;11.590;2022-09-09T09:04:48;1.70;;;1.10;;
17372;SDS011;8803;48.116;11.590;2022-09-09T09:07:00;1.57;;;0.90;;
17372;SDS011;8803;48.116;11.590;2022-09-09T09:09:14;1.30;;;1.10;;
17372;SDS011;8803;48.116;11.590;2022-09-09T09:11:20;1.33;;;1.00;;
17372;SDS011;8803;48.116;11.590;2022-09-09T09:13:34;1.17;;;0.90;;
17372;SDS011;8803;48.116;11.590;2022-09-09T09:15:39;1.47;;;1.00;;
17372;SDS011;8803;48.116;11.590;2022-09-09T09:17:46;1.67;;;1.10;;
17372;SDS011;8803;48.116;11.590;2022-09-09T09:19:51;1.57;;;1.30;;
17372;SDS011;8803;48.116;11.590;2022-09-09T09:21:56;2.37;;;1.33;;
17372;SDS011;8803;48.116;11.590;2022-09-09T09:24:12;1.63;;;1.20;;
17372;SDS011;8803;48.116;11.590;2022-09-09T09:26:27;2.83;;;1.10;;
17372;SDS011;8803;48.116;11.590;2022-09-09T09:28:33;1.83;;;1.10;;
17372;SDS011;8803;48.116;11.590;2022-09-09T09:30:38;2.63;;;1.27;;
17372;SDS011;8803;48.116;11.590;2022-09-09T09:32:53;1.30;;;1.10;;
17372;SDS011;8803;48.116;11.590;2022-09-09T09:34:58;1.60;;;1.50;;
17372;SDS011;8803;48.116;11.590;2022-09-09T09:37:11;4.10;;;1.73;;
17372;SDS011;8803;48.116;11.590;2022-09-09T09:39:23;2.40;;;1.40;;
17372;SDS011;8803;48.116;11.590;2022-09-09T09:41:29;2.93;;;2.47;;
17372;SDS011;8803;48.116;11.590;2022-09-09T09:43:53;2.33;;;2.03;;
17372;SDS011;8803;48.116;11.590;2022-09-09T09:45:53;2.80;;;1.40;;
17372;SDS011;8803;48.116;11.590;2022-09-09T09:47:59;1.83;;;1.00;;
17372;SDS011;8803;48.116;11.590;2022-09-09T09:50:16;1.93;;;1.17;;
17372;SDS011;8803;48.116;11.590;2022-09-09T09:52:29;2.33;;;1.60;;
17372;SDS011;8803;48.116;11.590;2022-09-09T09:54:38;2.63;;;1.80;;
17372;SDS011;8803;48.116;11.590;2022-09-09T09:56:44;2.83;;;1.37;;
17372;SDS011;8803;48.116;11.590;2022-09-09T09:58:57;2.03;;;1.40;;
17372;SDS011;8803;48.116;11.590;2022-09-09T10:01:00;2.77;;;1.67;;
17372;SDS011;8803;48.116;11.590;2022-09-09T10:03:14;2.87;;;1.23;;
17372;SDS011;8803;48.116;11.590;2022-09-09T10:05:35;1.77;;;1.10;;
17372;SDS011;8803;48.116;11.590;2022-09-09T10:07:46;2.63;;;1.10;;
17372;SDS011;8803;48.116;11.590;2022-09-09T10:10:04;1.43;;;1.10;;
17372;SDS011;8803;48.116;11.590;2022-09-09T10:12:23;1.33;;;1.00;;
17372;SDS011;8803;48.116;11.590;2022-09-09T10:14:37;1.83;;;0.93;;
17372;SDS011;8803;48.116;11.590;2022-09-09T10:16:47;2.57;;;1.10;;
17372;SDS011;8803;48.116;11.590;2022-09-09T10:18:59;1.10;;;1.00;;
17372;SDS011;8803;48.116;11.590;2022-09-09T10:21:08;1.43;;;1.00;;
17372;SDS011;8803;48.116;11.590;2022-09-09T10:23:26;1.63;;;1.20;;
17372;SDS011;8803;48.116;11.590;2022-09-09T10:25:52;1.77;;;1.40;;
17372;SDS011;8803;48.116;11.590;2022-09-09T10:28:04;2.63;;;1.47;;
17372;SDS011;8803;48.116;11.590;2022-09-09T10:30:13;1.40;;;1.20;;
17372;SDS011;8803;48.116;11.590;2022-09-09T10:32:36;1.90;;;1.10;;
17372;SDS011;8803;48.116;11.590;2022-09-09T10:34:45;3.27;;;1.10;;
17372;SDS011;8803;48.116;11.590;2022-09-09T10:37:02;2.17;;;1.23;;
17372;SDS011;8803;48.116;11.590;2022-09-09T10:39:14;1.33;;;1.23;;
17372;SDS011;8803;48.116;11.590;2022-09-09T10:41:30;2.60;;;1.00;;
17372;SDS011;8803;48.116;11.590;2022-09-09T10:45:54;1.30;;;1.00;;
17372;SDS011;8803;48.116;11.590;2022-09-09T10:48:07;0.80;;;0.77;;
17372;SDS011;8803;48.116;11.590;2022-09-09T10:50:20;1.93;;;1.23;;
17372;SDS011;8803;48.116;11.590;2022-09-09T10:52:40;1.63;;;1.20;;
17372;SDS011;8803;48.116;11.590;2022-09-09T10:54:52;2.60;;;1.30;;
17372;SDS011;8803;48.116;11.590;2022-09-09T10:57:07;1.53;;;0.87;;
17372;SDS011;8803;48.116;11.590;2022-09-09T10:59:13;4.30;;;1.20;;
17372;SDS011;8803;48.116;11.590;2022-09-09T11:01:27;1.83;;;1.27;;
17372;SDS011;8803;48.116;11.590;2022-09-09T11:03:33;2.93;;;1.23;;
17372;SDS011;8803;48.116;11.590;2022-09-09T11:05:49;2.30;;;1.10;;
17372;SDS011;8803;48.116;11.590;2022-09-09T11:07:56;1.50;;;1.40;;
17372;SDS011;8803;48.116;11.590;2022-09-09T11:12:15;2.23;;;2.03;;
17372;SDS011;8803;48.116;11.590;2022-09-09T11:14:21;2.33;;;1.77;;
17372;SDS011;8803;48.116;11.590;2022-09-09T11:16:28;1.40;;;1.30;;
17372;SDS011;8803;48.116;11.590;2022-09-09T11:18:35;2.43;;;1.20;;
17372;SDS011;8803;48.116;11.590;2022-09-09T11:20:51;1.40;;;1.17;;
17372;SDS011;8803;48.116;11.590;2022-09-09T11:22:57;5.20;;;1.20;;
17372;SDS011;8803;48.116;11.590;2022-09-09T11:25:14;1.27;;;1.07;;
17372;SDS011;8803;48.116;11.590;2022-09-09T11:27:19;1.23;;;0.90;;
17372;SDS011;8803;48.116;11.590;2022-09-09T11:29:33;0.80;;;0.80;;
17372;SDS011;8803;48.116;11.590;2022-09-09T11:34:12;0.93;;;0.70;;
17372;SDS011;8803;48.116;11.590;2022-09-09T11:36:34;1.03;;;0.70;;
17372;SDS011;8803;48.116;11.590;2022-09-09T11:38:50;1.00;;;0.77;;
17372;SDS011;8803;48.116;11.590;2022-09-09T11:40:58;1.27;;;0.80;;
17372;SDS011;8803;48.116;11.590;2022-09-09T11:43:11;1.57;;;1.00;;
17372;SDS011;8803;48.116;11.590;2022-09-09T11:45:22;0.70;;;0.70;;
17372;SDS011;8803;48.116;11.590;2022-09-09T11:47:30;1.50;;;1.40;;
17372;SDS011;8803;48.116;11.590;2022-09-09T11:49:40;1.30;;;1.20;;
17372;SDS011;8803;48.116;11.590;2022-09-09T11:51:46;2.80;;;1.10;;
17372;SDS011;8803;48.116;11.590;2022-09-09T11:54:02;1.57;;;0.80;;
17372;SDS011;8803;48.116;11.590;2022-09-09T11:56:25;1.10;;;0.70;;
17372;SDS011;8803;48.116;11.590;2022-09-09T11:58:40;0.80;;;0.80;;
17372;SDS011;8803;48.116;11.590;2022-09-09T12:00:47;2.13;;;1.90;;
17372;SDS011;8803;48.116;11.590;2022-09-09T12:02:53;2.20;;;2.00;;
17372;SDS011;8803;48.116;11.590;2022-09-09T12:05:06;2.30;;;2.10;;
17372;SDS011;8803;48.116;11.590;2022-09-09T12:07:23;3.30;;;3.00;;
17372;SDS011;8803;48.116;11.590;2022-09-09T12:09:38;2.40;;;2.20;;
17372;SDS011;8803;48.116;11.590;2022-09-09T12:13:57;3.33;;;2.97;;
17372;SDS011;8803;48.116;11.590;2022-09-09T12:16:02;1.47;;;1.17;;
17372;SDS011;8803;48.116;11.590;2022-09-09T12:18:07;1.57;;;1.20;;
17372;SDS011;8803;48.116;11.590;2022-09-09T12:20:14;1.10;;;1.00;;
17372;SDS011;8803;48.116;11.590;2022-09-09T12:22:31;1.70;;;1.20;;
17372;SDS011;8803;48.116;11.590;2022-09-09T12:24:39;1.80;;;1.23;;
17372;SDS011;8803;48.116;11.590;2022-09-09T12:26:52;1.03;;;0.93;;
17372;SDS011;8803;48.116;11.590;2022-09-09T12:29:03;1.93;;;1.50;;
17372;SDS011;8803;48.116;11.590;2022-09-09T12:31:18;1.40;;;1.20;;
17372;SDS011;8803;48.116;11.590;2022-09-09T12:35:36;1.60;;;1.10;;
17372;SDS011;8803;48.116;11.590;2022-09-09T12:37:44;1.90;;;1.10;;
17372;SDS011;8803;48.116;11.590;2022-09-09T12:39:50;1.27;;;1.17;;
17372;SDS011;8803;48.116;11.590;2022-09-09T12:41:57;0.90;;;0.90;;
17372;SDS011;8803;48.116;11.590;2022-09-09T12:44:11;0.80;;;0.80;;
17372;SDS011;8803;48.116;11.590;2022-09-09T12:46:17;1.10;;;0.80;;
17372;SDS011;8803;48.116;11.590;2022-09-09T12:48:28;1.17;;;1.07;;
17372;SDS011;8803;48.116;11.590;2022-09-09T12:50:37;1.20;;;1.10;;
17372;SDS011;8803;48.116;11.590;2022-09-09T12:52:51;1.83;;;0.90;;
17372;SDS011;8803;48.116;11.590;2022-09-09T12:54:57;1.13;;;1.00;;
17372;SDS011;8803;48.116;11.590;2022-09-09T12:57:04;2.53;;;0.63;;
17372;SDS011;8803;48.116;11.590;2022-09-09T12:59:17;0.70;;;0.70;;
17372;SDS011;8803;48.116;11.590;2022-09-09T13:01:33;2.53;;;0.77;;
17372;SDS011;8803;48.116;11.590;2022-09-09T13:03:42;0.60;;;0.60;;
17372;SDS011;8803;48.116;11.590;2022-09-09T13:05:58;1.27;;;0.87;;
17372;SDS011;8803;48.116;11.590;2022-09-09T13:10:21;1.17;;;0.70;;
17372;SDS011;8803;48.116;11.590;2022-09-09T13:12:26;1.23;;;0.80;;
17372;SDS011;8803;48.116;11.590;2022-09-09T13:14:38;1.17;;;0.53;;
17372;SDS011;8803;48.116;11.590;2022-09-09T13:16:53;2.63;;;1.70;;
17372;SDS011;8803;48.116;11.590;2022-09-09T13:19:07;1.83;;;1.30;;
17372;SDS011;8803;48.116;11.590;2022-09-09T13:21:13;1.30;;;1.20;;
17372;SDS011;8803;48.116;11.590;2022-09-09T13:23:16;1.67;;;1.57;;
17372;SDS011;8803;48.116;11.590;2022-09-09T13:25:30;1.50;;;1.30;;
17372;SDS011;8803;48.116;11.590;2022-09-09T13:27:36;1.73;;;1.40;;
17372;SDS011;8803;48.116;11.590;2022-09-09T13:29:51;1.50;;;1.10;;
17372;SDS011;8803;48.116;11.590;2022-09-09T13:32:03;0.80;;;0.63;;
17372;SDS011;8803;48.116;11.590;2022-09-09T13:34:25;1.37;;;0.60;;
17372;SDS011;8803;48.116;11.590;2022-09-09T13:36:30;1.97;;;0.70;;
17372;SDS011;8803;48.116;11.590;2022-09-09T13:38:36;1.40;;;0.60;;
17372;SDS011;8803;48.116;11.590;2022-09-09T13:40:41;1.17;;;0.80;;